Rimrock, California
Current Conditions -  °F | °C
As of 1:35 PM on Monday 24 Nov 2014 (Local Time) from KL35 Reporting Station
Clear Clear  
Wind Chill: 38°   Ceiling: Unl
Heat Index: 45°   Visibility: 10mi
Dew Point:   Wind: 13mph
Humidity: 21%   Direction: 90°E
Pressure: 30.39"   Gusts: 21mph
Location:  34.1944°N, 116.548°W
Report Text: KL35 242135Z AUTO 09011G18KT 10SM CLR 07/M14 A3039 RMK AO2
Loading
Personal Weather Stations






























Interactive Weather Map New forecast layout! Learn more

10-Day Weather Forecast

Advertisements
Track Severe Weather on mobile